Impacts TAF Board
For situational awareness. Not to be used for flight planning purposes.
IDs:

KTPA - Tampa Intl Arpt, FL, US

Issued at 0531 UTC 27 Feb 2020
Updated at 0809 UTC 27 Feb 2020
Potential Impact None Slight Moderate High
Time<<27/21Z 27/22Z 27/23Z 28/00Z 28/01Z 28/02Z 28/03Z 28/04Z 28/05Z 28/06Z 28/07Z 28/08Z 28/09Z>>
Type PRVL PRVL PRVL PRVL PRVL PRVL PRVL PRVL PRVL PRVL PRVL PRVL PRVL
VIS >6 >6 >6 >6 >6 >6 >6 >6 >6 >6 >6 >6 >6
CIG -- -- -- -- -- -- -- -- -- -- -- -- --
Cover SCT SKC SKC SKC SKC SKC SKC SKC SKC SKC SKC SKC SKC
FltCat VFR VFR VFR VFR VFR VFR VFR VFR VFR VFR VFR VFR VFR
WX -- -- -- -- -- -- -- -- -- -- -- -- --
WDir 320 320 320 320 340 340 340 340 340 340 340 340 340
WSpd 12 9 9 9 4 4 4 4 4 4 4 4 4
WGst 18 -- -- -- -- -- -- -- -- -- -- -- --
Raw TAF
KTPA 270531Z 2706/2812 31012G18KT P6SM -RA FEW010 SCT035 OVC120
  FM270800 34012G18KT P6SM SCT035 BKN130
  FM271500 32012G18KT P6SM FEW035 SCT250
  FM272200 32009KT P6SM SKC
  FM280100 34004KT P6SM SKC


METAR Board
Radar Display
Forecast Discussion
For situational awareness. Not to be used for flight planning purposes.